Stations météo

réclame
Mon MeteoGroup
Arroyo Del Ojanco, Espagne (8352): Température de l'air & dewpoint: 13.06.2018 12:00:00 - 19.06.2018 12:00:00 (CEST)Arroyo Del Ojanco, Espagne (8352): Vitesse du vent & gusts: 13.06.2018 12:00:00 - 19.06.2018 12:00:00 (CEST)Arroyo Del Ojanco, Espagne (8352): Direction du vent: 13.06.2018 12:00:00 - 19.06.2018 12:00:00 (CEST)Arroyo Del Ojanco, Espagne (8352): Quantités de précipitations: 13.06.2018 12:00:00 - 19.06.2018 12:00:00 (CEST)
Date & Time tt [°C] td [°C] ff [km/h] ff [knt] fx [km/h] fx [knt] dd rr [mm]
19.06.2018 12:00:00 28,0 16,9 3 1 12 7 WNW 0,0
19.06.2018 11:00:00 26,2 16,4 3 1 9 5 N 0,0
19.06.2018 10:00:00 25,1 16,5 2 1 8 4 N 0,0
19.06.2018 09:00:00 23,7 16,7 0 0 4 2 N 0,0
19.06.2018 08:00:00 21,0 15,3 0 0 6 3 N -
19.06.2018 07:00:00 19,1 13,7 0 0 0 0 N 0,0
19.06.2018 06:00:00 20,1 13,8 0 0 5 3 N 0,0
19.06.2018 05:00:00 20,8 14,0 2 1 13 7 SSE 0,0
19.06.2018 04:00:00 22,9 14,5 8 5 13 7 SSE 0,0
19.06.2018 03:00:00 22,7 14,5 5 3 9 5 S 0,0
19.06.2018 02:00:00 24,1 14,5 1 0 12 6 WNW -
19.06.2018 01:00:00 - - - - - - - -
19.06.2018 00:00:00 27,7 15,4 9 5 23 13 ESE 0,0
18.06.2018 23:00:00 28,1 14,7 12 6 20 11 ESE 0,0
18.06.2018 22:00:00 29,3 13,5 10 6 19 10 ENE 0,0
18.06.2018 21:00:00 31,3 14,0 13 7 26 14 NNE 0,0
18.06.2018 20:00:00 33,3 14,8 13 7 28 15 NNE -
18.06.2018 19:00:00 34,0 14,5 14 8 27 15 N 0,0
18.06.2018 18:00:00 34,7 15,1 7 4 21 12 N 0,0
18.06.2018 17:00:00 34,9 15,7 12 6 26 14 NNW 0,0
18.06.2018 16:00:00 33,9 15,8 10 6 21 11 NNE 0,0
18.06.2018 15:00:00 33,1 15,1 5 3 25 13 NE 0,0
18.06.2018 14:00:00 32,5 15,5 8 4 20 11 N -
18.06.2018 13:00:00 30,9 15,3 3 1 17 9 NNE 0,0
18.06.2018 12:00:00 30,2 16,2 6 3 16 9 NNE 0,0
18.06.2018 11:00:00 27,9 15,5 8 4 15 8 NE 0,0
18.06.2018 10:00:00 25,3 15,0 9 5 17 9 NE 0,0
18.06.2018 09:00:00 23,5 15,0 1 0 11 6 ENE 0,0
18.06.2018 08:00:00 20,3 13,0 4 2 11 6 NE -
18.06.2018 07:00:00 18,9 11,2 0 0 3 2 N 0,0
18.06.2018 06:00:00 20,7 11,9 1 1 19 10 ENE 0,0
18.06.2018 05:00:00 20,0 12,0 3 1 18 10 NNE 0,0
18.06.2018 04:00:00 21,6 12,2 6 3 15 8 NE 0,0
18.06.2018 03:00:00 22,4 12,4 6 3 15 8 ENE 0,0
18.06.2018 02:00:00 22,9 11,9 2 1 16 9 NNE -
18.06.2018 01:00:00 24,7 12,6 8 4 14 8 ENE 0,0
18.06.2018 00:00:00 25,0 12,6 1 0 16 8 E 0,0
17.06.2018 23:00:00 27,8 13,0 0 0 11 6 N 0,0
17.06.2018 22:00:00 29,6 13,8 4 2 11 6 ENE 0,0
17.06.2018 21:00:00 31,7 14,8 7 4 18 10 NNE 0,0
17.06.2018 20:00:00 33,3 15,3 10 6 21 11 NNE -
17.06.2018 19:00:00 33,5 15,5 9 5 19 10 N 0,0
17.06.2018 18:00:00 34,1 16,0 9 5 25 13 NE 0,0
17.06.2018 17:00:00 33,5 15,9 5 3 27 15 NNE 0,0
17.06.2018 16:00:00 32,3 15,7 12 6 23 13 N 0,0
17.06.2018 15:00:00 33,0 17,2 8 4 17 9 WNW 0,0
17.06.2018 14:00:00 31,4 16,2 3 2 14 8 N -
17.06.2018 13:00:00 29,8 16,6 0 0 12 7 NE 0,0
17.06.2018 12:00:00 27,9 16,2 4 2 16 9 W 0,0
17.06.2018 11:00:00 26,1 15,5 6 3 16 9 W 0,0
17.06.2018 10:00:00 24,9 15,8 0 0 6 4 W 0,0
17.06.2018 09:00:00 22,9 16,4 0 0 3 2 N 0,0
17.06.2018 08:00:00 20,7 15,7 0 0 0 0 N -
17.06.2018 07:00:00 19,4 13,8 0 0 10 6 N 0,0
17.06.2018 06:00:00 20,0 13,2 0 0 4 2 N 0,0
17.06.2018 05:00:00 20,7 13,2 0 0 0 0 N 0,0
17.06.2018 04:00:00 22,0 13,1 0 0 7 4 N 0,0
17.06.2018 03:00:00 24,4 13,9 7 4 13 7 SSE 0,0
17.06.2018 02:00:00 23,7 13,3 0 0 9 5 NNE -
17.06.2018 01:00:00 24,3 12,9 0 0 0 0 N 0,0
17.06.2018 00:00:00 26,4 14,2 0 0 0 0 N 0,0
16.06.2018 23:00:00 27,7 14,0 0 0 0 0 N 0,0
16.06.2018 22:00:00 28,7 14,1 0 0 9 5 N 0,0
16.06.2018 21:00:00 30,1 14,6 0 0 7 4 N 0,0
16.06.2018 20:00:00 32,1 14,3 0 0 17 9 N -
16.06.2018 19:00:00 33,5 14,5 0 0 22 12 NNW 0,0
16.06.2018 18:00:00 34,6 15,0 6 4 23 12 WNW 0,0
16.06.2018 17:00:00 33,2 14,3 10 6 24 13 W 0,0
16.06.2018 16:00:00 33,4 15,4 6 3 25 14 WNW 0,0
16.06.2018 15:00:00 33,1 15,6 4 2 24 13 W 0,0
16.06.2018 14:00:00 31,5 15,0 5 3 21 12 WNW -
16.06.2018 13:00:00 30,0 15,7 10 6 19 11 WSW 0,0
16.06.2018 12:00:00 28,1 15,4 9 5 22 12 WSW 0,0
16.06.2018 11:00:00 26,6 15,0 0 0 6 3 W 0,0
16.06.2018 10:00:00 24,3 15,0 0 0 1 1 NNE 0,0
16.06.2018 09:00:00 21,4 14,1 0 0 1 0 N 0,0
16.06.2018 08:00:00 18,2 13,3 0 0 0 0 N -
16.06.2018 07:00:00 16,6 11,7 0 0 0 0 N 0,0
16.06.2018 06:00:00 17,1 11,4 0 0 3 2 N 0,0
16.06.2018 05:00:00 18,2 11,3 0 0 1 0 N 0,0
16.06.2018 04:00:00 18,9 11,0 0 0 8 4 N 0,0
16.06.2018 03:00:00 19,7 10,4 0 0 0 0 N 0,0
16.06.2018 02:00:00 20,5 10,3 0 0 0 0 N -
16.06.2018 01:00:00 22,0 10,5 0 0 6 3 ENE 0,0
16.06.2018 00:00:00 22,8 10,3 0 0 7 4 NE 0,0
15.06.2018 23:00:00 25,6 10,2 0 0 10 6 N 0,0
15.06.2018 22:00:00 26,8 10,5 0 0 6 4 E 0,0
15.06.2018 21:00:00 31,1 12,0 0 0 8 4 N 0,0
15.06.2018 20:00:00 31,7 12,0 2 1 14 8 WSW -
15.06.2018 19:00:00 32,4 12,1 4 2 22 12 WNW 0,0
15.06.2018 18:00:00 32,0 11,7 0 0 19 10 NW 0,0
15.06.2018 17:00:00 31,4 11,7 5 3 17 9 NE 0,0
15.06.2018 16:00:00 30,7 11,6 1 1 19 10 NNE 0,0
15.06.2018 15:00:00 29,3 11,4 1 1 16 8 E 0,0
15.06.2018 14:00:00 29,0 12,0 2 1 13 7 NNW -
15.06.2018 13:00:00 27,6 12,0 3 1 16 9 WNW 0,0
15.06.2018 12:00:00 26,6 11,9 0 0 8 5 W 0,0
15.06.2018 11:00:00 24,0 11,7 0 0 6 3 NW 0,0
15.06.2018 10:00:00 21,4 11,4 0 0 6 3 N 0,0
15.06.2018 09:00:00 19,0 10,6 0 0 3 2 N 0,0
15.06.2018 08:00:00 16,0 10,1 0 0 7 4 NE -
15.06.2018 07:00:00 13,5 8,1 0 0 10 6 N 0,0
15.06.2018 06:00:00 14,6 8,1 2 1 9 5 NE 0,0
15.06.2018 05:00:00 15,0 7,8 0 0 11 6 N 0,0
15.06.2018 04:00:00 16,0 7,8 10 6 14 8 NE 0,0
15.06.2018 03:00:00 16,8 7,5 0 0 2 1 N 0,0
15.06.2018 02:00:00 17,0 7,1 0 0 0 0 N -
15.06.2018 01:00:00 18,9 7,0 0 0 0 0 N 0,0
15.06.2018 00:00:00 20,1 6,1 0 0 0 0 N 0,0
14.06.2018 23:00:00 21,9 6,6 0 0 9 5 N 0,0
14.06.2018 22:00:00 23,7 6,9 0 0 8 4 ENE 0,0
14.06.2018 21:00:00 26,4 7,9 2 1 21 11 NNE 0,0
14.06.2018 20:00:00 27,7 7,6 11 6 23 13 NNE -
14.06.2018 19:00:00 28,4 8,7 11 6 23 13 NNE 0,0
14.06.2018 18:00:00 28,1 9,4 9 5 22 12 N 0,0
14.06.2018 17:00:00 28,1 11,2 6 4 23 12 NNE 0,0
14.06.2018 16:00:00 27,5 11,5 6 3 20 11 W 0,0
14.06.2018 15:00:00 26,8 11,7 8 5 19 11 WNW 0,0
14.06.2018 14:00:00 25,8 12,3 2 1 16 9 NE -
14.06.2018 13:00:00 25,1 12,0 1 1 11 6 E 0,0
14.06.2018 12:00:00 23,9 11,6 1 1 12 7 ENE 0,0
14.06.2018 11:00:00 22,1 11,2 1 0 9 5 NNE 0,0
14.06.2018 10:00:00 19,7 11,2 1 1 8 4 N 0,0
14.06.2018 09:00:00 18,0 11,1 0 0 8 4 NNE 0,0
14.06.2018 08:00:00 15,3 10,7 0 0 0 0 N -
14.06.2018 07:00:00 13,6 9,5 0 0 9 5 N 0,0
14.06.2018 06:00:00 14,8 9,2 0 0 0 0 N 0,0
14.06.2018 05:00:00 14,9 8,2 0 0 5 3 N 0,0
14.06.2018 04:00:00 15,3 8,1 0 0 7 4 N 0,0
14.06.2018 03:00:00 17,9 8,5 7 4 16 8 ENE 0,0
14.06.2018 02:00:00 17,7 7,7 0 0 9 5 N -
14.06.2018 01:00:00 18,7 8,1 0 0 5 3 NE 0,0
14.06.2018 00:00:00 19,7 7,8 0 0 5 3 S 0,0
13.06.2018 23:00:00 22,5 8,2 0 0 14 8 ENE 0,0
13.06.2018 22:00:00 23,2 8,1 6 3 10 6 ENE 0,0
13.06.2018 21:00:00 25,9 8,9 3 1 18 10 N 0,0
13.06.2018 20:00:00 27,2 9,5 9 5 24 13 NNW -
13.06.2018 19:00:00 27,5 10,2 10 5 26 14 NW 0,0
13.06.2018 18:00:00 26,7 10,0 13 7 26 14 N 0,0
13.06.2018 17:00:00 25,8 10,0 12 6 25 13 NNW 0,0
13.06.2018 16:00:00 27,1 11,2 12 6 26 14 NNW 0,0
13.06.2018 15:00:00 26,2 11,5 9 5 22 12 WNW 0,0
13.06.2018 14:00:00 24,8 12,4 3 2 16 9 N -
13.06.2018 13:00:00 24,0 13,2 3 2 13 7 NW 0,0
13.06.2018 12:00:00 22,6 12,5 4 2 11 6 ESE 0,0

tt = Température de l'air
td = dewpoint
ff = Vitesse du vent
fx = gusts
dd = Direction du vent
rr = Quantités de précipitations

stations d'obs. à proximité